KCLS/CLS METAR and TAF weather

Enter ICAO airport designator
Station Type Date Time Source
KCLS METAR 2021/09/24 03:35 UTC NOAA

KCLS 240335Z AUTO 00000KT 10SM CLR 16/13 A3022 RMK AO2


Station Type Date Time Source
KCLS Decoded METAR 2021/09/24 03:35 UTC NOAA

Station name not available
Sep 23, 2021 - 11:35 PM EDT / 2021.09.24 0335 UTC
Wind: Calm:0
Visibility: 10 mile(s):0
Sky conditions: clear
Temperature: 60 F (16 C)
Dew Point: 55 F (13 C)
Relative Humidity: 82%
Pressure (altimeter): 30.22 in. Hg (1023 hPa)
ob: KCLS 240335Z AUTO 00000KT 10SM CLR 16/13 A3022 RMK AO2
cycle: 3

Station Type Date Time Source
KCLS TAF UTC NOAA

Error!

Example: see airport list